地図

経路データ

SID SEASON NUMBER BASIN SUBBASIN NAME ISO_TIME NATURE LAT LON WMO_WIND WMO_PRES WMO_AGENCY TRACK_TYPE DIST2LAND LANDFALL IFLAG USA_AGENCY USA_ATCF_ID USA_LAT USA_LON USA_RECORD USA_STATUS USA_WIND USA_PRES USA_SSHS USA_R34_NE USA_R34_SE USA_R34_SW USA_R34_NW USA_R50_NE USA_R50_SE USA_R50_SW USA_R50_NW USA_R64_NE USA_R64_SE USA_R64_SW USA_R64_NW USA_POCI USA_ROCI USA_RMW USA_EYE TOKYO_LAT TOKYO_LON TOKYO_GRADE TOKYO_WIND TOKYO_PRES TOKYO_R50_DIR TOKYO_R50_LONG TOKYO_R50_SHORT TOKYO_R30_DIR TOKYO_R30_LONG TOKYO_R30_SHORT TOKYO_LAND CMA_LAT CMA_LON CMA_CAT CMA_WIND CMA_PRES HKO_LAT HKO_LON HKO_CAT HKO_WIND HKO_PRES NEWDELHI_LAT NEWDELHI_LON NEWDELHI_GRADE NEWDELHI_WIND NEWDELHI_PRES NEWDELHI_CI NEWDELHI_DP NEWDELHI_POCI REUNION_LAT REUNION_LON REUNION_TYPE REUNION_WIND REUNION_PRES REUNION_TNUM REUNION_CI REUNION_RMW REUNION_R34_NE REUNION_R34_SE REUNION_R34_SW REUNION_R34_NW REUNION_R50_NE REUNION_R50_SE REUNION_R50_SW REUNION_R50_NW REUNION_R64_NE REUNION_R64_SE REUNION_R64_SW REUNION_R64_NW BOM_LAT BOM_LON BOM_TYPE BOM_WIND BOM_PRES BOM_TNUM BOM_CI BOM_RMW BOM_R34_NE BOM_R34_SE BOM_R34_SW BOM_R34_NW BOM_R50_NE BOM_R50_SE BOM_R50_SW BOM_R50_NW BOM_R64_NE BOM_R64_SE BOM_R64_SW BOM_R64_NW BOM_ROCI BOM_POCI BOM_EYE BOM_POS_METHOD BOM_PRES_METHOD NADI_LAT NADI_LON NADI_CAT NADI_WIND NADI_PRES WELLINGTON_LAT WELLINGTON_LON WELLINGTON_WIND WELLINGTON_PRES DS824_LAT DS824_LON DS824_STAGE DS824_WIND DS824_PRES TD9636_LAT TD9636_LON TD9636_STAGE TD9636_WIND TD9636_PRES TD9635_LAT TD9635_LON TD9635_WIND TD9635_PRES TD9635_ROCI NEUMANN_LAT NEUMANN_LON NEUMANN_CLASS NEUMANN_WIND NEUMANN_PRES MLC_LAT MLC_LON MLC_CLASS MLC_WIND MLC_PRES USA_GUST BOM_GUST BOM_GUST_PER REUNION_GUST REUNION_GUST_PER USA_SEAHGT USA_SEARAD_NE USA_SEARAD_SE USA_SEARAD_SW USA_SEARAD_NW STORM_SPEED STORM_DIR
1969227N13325 1969 57 NA NA DEBBIE 1969-08-14 12:00:00 TS 13.0000 -35.5000 25 hurdat_atl main 1843 1836 O_____________ hurdat_atl AL081969 13.0000 -35.5000 TD 25 -1 15 283
1969227N13325 1969 57 NA NA DEBBIE 1969-08-14 15:00:00 TS 13.1629 -36.2497 main 1847 1836 P_____________ AL081969 13.1629 -36.2497 TD 25 -1 15 282
1969227N13325 1969 57 NA NA DEBBIE 1969-08-14 18:00:00 TS 13.3000 -37.0000 25 hurdat_atl main 1841 1808 O_____________ hurdat_atl AL081969 13.3000 -37.0000 TD 25 -1 15 279
1969227N13325 1969 57 NA NA DEBBIE 1969-08-14 21:00:00 TS 13.3998 -37.7502 main 1799 1742 P_____________ AL081969 13.3998 -37.7502 TD 27 -1 15 278
1969227N13325 1969 57 NA NA DEBBIE 1969-08-15 00:00:00 TS 13.5000 -38.5000 30 hurdat_atl main 1742 1688 O_____________ hurdat_atl AL081969 13.5000 -38.5000 TD 30 -1 15 280
1969227N13325 1969 57 NA NA DEBBIE 1969-08-15 03:00:00 TS 13.6498 -39.2500 main 1688 1634 P_____________ AL081969 13.6498 -39.2500 TD 30 -1 15 282
1969227N13325 1969 57 NA NA DEBBIE 1969-08-15 06:00:00 TS 13.8000 -40.0000 30 hurdat_atl main 1634 1584 O_____________ hurdat_atl AL081969 13.8000 -40.0000 TD 30 -1 15 280
1969227N13325 1969 57 NA NA DEBBIE 1969-08-15 09:00:00 TS 13.8998 -40.7502 main 1576 1528 P_____________ AL081969 13.8998 -40.7502 TD 32 -1 15 278
1969227N13325 1969 57 NA NA DEBBIE 1969-08-15 12:00:00 TS 14.0000 -41.5000 35 hurdat_atl main 1528 1483 O_____________ hurdat_atl AL081969 14.0000 -41.5000 TS 35 0 15 280
1969227N13325 1969 57 NA NA DEBBIE 1969-08-15 15:00:00 TS 14.1498 -42.2500 main 1483 1443 P_____________ AL081969 14.1498 -42.2500 TS 37 0 15 282
1969227N13325 1969 57 NA NA DEBBIE 1969-08-15 18:00:00 TS 14.3000 -43.0000 40 hurdat_atl main 1443 1405 O_____________ hurdat_atl AL081969 14.3000 -43.0000 TS 40 0 15 280
1969227N13325 1969 57 NA NA DEBBIE 1969-08-15 21:00:00 TS 14.4075 -43.7726 main 1398 1364 P_____________ AL081969 14.4075 -43.7726 TS 42 0 15 278
1969227N13325 1969 57 NA NA DEBBIE 1969-08-16 00:00:00 TS 14.5000 -44.5000 45 hurdat_atl main 1364 1335 O_____________ hurdat_atl AL081969 14.5000 -44.5000 TS 45 0 13 278
1969227N13325 1969 57 NA NA DEBBIE 1969-08-16 03:00:00 TS 14.5921 -45.1152 main 1335 1304 P_____________ AL081969 14.5921 -45.1152 TS 47 0 12 280
1969227N13325 1969 57 NA NA DEBBIE 1969-08-16 06:00:00 TS 14.7000 -45.7000 50 hurdat_atl main 1304 1277 O_____________ hurdat_atl AL081969 14.7000 -45.7000 TS 50 0 12 281
1969227N13325 1969 57 NA NA DEBBIE 1969-08-16 09:00:00 TS 14.8276 -46.3651 main 1271 1257 P_____________ AL081969 14.8276 -46.3651 TS 52 0 13 283
1969227N13325 1969 57 NA NA DEBBIE 1969-08-16 12:00:00 TS 15.0000 -47.0000 55 hurdat_atl main 1257 1251 O_____________ hurdat_atl AL081969 15.0000 -47.0000 TS 55 0 12 290
1969227N13325 1969 57 NA NA DEBBIE 1969-08-16 15:00:00 TS 15.2347 -47.5226 main 1251 1251 P_____________ AL081969 15.2347 -47.5226 TS 60 0 11 297
1969227N13325 1969 57 NA NA DEBBIE 1969-08-16 18:00:00 TS 15.5000 -48.0000 65 hurdat_atl main 1257 1252 O_____________ hurdat_atl AL081969 15.5000 -48.0000 HU 65 1 11 299
1969227N13325 1969 57 NA NA DEBBIE 1969-08-16 21:00:00 TS 15.7499 -48.5001 main 1255 1255 P_____________ AL081969 15.7499 -48.5001 HU 67 1 11 297
1969227N13325 1969 57 NA NA DEBBIE 1969-08-17 00:00:00 TS 16.0000 -49.0000 70 984 hurdat_atl main 1265 1260 O_____________ hurdat_atl AL081969 16.0000 -49.0000 HU 70 984 1 11 297
1969227N13325 1969 57 NA NA DEBBIE 1969-08-17 03:00:00 TS 16.2500 -49.5151 main 1262 1262 P_____________ AL081969 16.2500 -49.5151 HU 72 982 1 11 298
1969227N13325 1969 57 NA NA DEBBIE 1969-08-17 06:00:00 TS 16.5000 -50.0000 75 980 hurdat_atl main 1272 1268 O_____________ hurdat_atl AL081969 16.5000 -50.0000 HU 75 980 1 10 300
1969227N13325 1969 57 NA NA DEBBIE 1969-08-17 09:00:00 TS 16.7348 -50.4078 main 1278 1278 P_____________ AL081969 16.7348 -50.4078 HU 82 978 1 9 303
1969227N13325 1969 57 NA NA DEBBIE 1969-08-17 12:00:00 TS 17.0000 -50.8000 90 976 hurdat_atl main 1296 1289 O_____________ hurdat_atl AL081969 17.0000 -50.8000 HU 90 976 2 10 307
1969227N13325 1969 57 NA NA DEBBIE 1969-08-17 15:00:00 TS 17.3350 -51.2425 main 1289 1272 P_____________ AL081969 17.3350 -51.2425 HU 90 973 2 11 309
1969227N13325 1969 57 NA NA DEBBIE 1969-08-17 18:00:00 TS 17.7000 -51.7000 90 971 hurdat_atl main 1272 1259 O_____________ hurdat_atl AL081969 17.7000 -51.7000 HU 90 971 2 11 309
1969227N13325 1969 57 NA NA DEBBIE 1969-08-17 21:00:00 TS 18.0499 -52.1576 main 1251 1248 P_____________ AL081969 18.0499 -52.1576 HU 90 969 2 11 309
1969227N13325 1969 57 NA NA DEBBIE 1969-08-18 00:00:00 TS 18.4000 -52.6000 90 967 hurdat_atl main 1248 1241 O_____________ hurdat_atl AL081969 18.4000 -52.6000 HU 90 967 2 11 311
1969227N13325 1969 57 NA NA DEBBIE 1969-08-18 03:00:00 TS 18.7574 -53.0151 main 1249 1242 P_____________ AL081969 18.7574 -53.0151 HU 95 967 2 10 313
1969227N13325 1969 57 NA NA DEBBIE 1969-08-18 06:00:00 TS 19.1000 -53.4000 100 968 hurdat_atl main 1245 1239 O_____________ hurdat_atl AL081969 19.1000 -53.4000 HU 100 968 3 10 312
1969227N13325 1969 57 NA NA DEBBIE 1969-08-18 09:00:00 TS 19.3999 -53.7652 main 1243 1217 P_____________ AL081969 19.3999 -53.7652 HU 100 971 3 9 312
1969227N13325 1969 57 NA NA DEBBIE 1969-08-18 12:00:00 TS 19.7000 -54.1000 100 974 hurdat_atl main 1217 1189 O_____________ hurdat_atl AL081969 19.7000 -54.1000 HU 100 974 3 9 317
1969227N13325 1969 57 NA NA DEBBIE 1969-08-18 15:00:00 TS 20.0349 -54.4002 main 1189 1162 P_____________ AL081969 20.0349 -54.4002 HU 95 973 2 9 321
1969227N13325 1969 57 NA NA DEBBIE 1969-08-18 18:00:00 TS 20.4000 -54.7000 90 972 hurdat_atl main 1164 1142 O_____________ hurdat_atl AL081969 20.4000 -54.7000 HU 90 972 2 10 324
1969227N13325 1969 57 NA NA DEBBIE 1969-08-18 21:00:00 TS 20.8071 -54.9978 main 1142 1111 P_____________ AL081969 20.8071 -54.9978 HU 80 974 1 10 321
1969227N13325 1969 57 NA NA DEBBIE 1969-08-19 00:00:00 TS 21.2000 -55.4000 70 976 hurdat_atl main 1111 1061 O_____________ hurdat_atl AL081969 21.2000 -55.4000 HU 70 976 1 12 307
1969227N13325 1969 57 NA NA DEBBIE 1969-08-19 03:00:00 TS 21.5154 -56.0200 main 1061 1003 P_____________ AL081969 21.5154 -56.0200 HU 75 977 1 14 296
1969227N13325 1969 57 NA NA DEBBIE 1969-08-19 06:00:00 TS 21.8000 -56.7000 80 978 hurdat_atl main 1003 968 O_____________ hurdat_atl AL081969 21.8000 -56.7000 HU 80 978 1 13 297
1969227N13325 1969 57 NA NA DEBBIE 1969-08-19 09:00:00 TS 22.0843 -57.2358 main 968 927 P_____________ AL081969 22.0843 -57.2358 HU 80 976 1 12 300
1969227N13325 1969 57 NA NA DEBBIE 1969-08-19 12:00:00 TS 22.4000 -57.8000 80 974 hurdat_atl main 927 887 O_____________ hurdat_atl AL081969 22.4000 -57.8000 HU 80 974 1 14 301
1969227N13325 1969 57 NA NA DEBBIE 1969-08-19 15:00:00 TS 22.8003 -58.5421 main 887 846 P_____________ AL081969 22.8003 -58.5421 HU 87 970 2 16 300
1969227N13325 1969 57 NA NA DEBBIE 1969-08-19 18:00:00 TS 23.2000 -59.3000 95 966 hurdat_atl main 846 821 O_____________ hurdat_atl AL081969 23.2000 -59.3000 HU 95 966 2 14 300
1969227N13325 1969 57 NA NA DEBBIE 1969-08-19 21:00:00 TS 23.5064 -59.8786 main 821 801 P_____________ AL081969 23.5064 -59.8786 HU 97 961 3 13 299
1969227N13325 1969 57 NA NA DEBBIE 1969-08-20 00:00:00 TS 23.8000 -60.5000 100 956 hurdat_atl main 802 771 O_____________ hurdat_atl AL081969 23.8000 -60.5000 HU 100 956 3 15 295
1969227N13325 1969 57 NA NA DEBBIE 1969-08-20 03:00:00 TS 24.1511 -61.4144 main 780 757 P_____________ AL081969 24.1511 -61.4144 HU 92 954 2 18 293
1969227N13325 1969 57 NA NA DEBBIE 1969-08-20 06:00:00 TS 24.5000 -62.3000 85 953 hurdat_atl main 762 758 O_____________ hurdat_atl AL081969 24.5000 -62.3000 HU 85 953 2 15 296
1969227N13325 1969 57 NA NA DEBBIE 1969-08-20 09:00:00 TS 24.7991 -62.8683 main 768 768 P_____________ AL081969 24.7991 -62.8683 HU 95 953 2 11 303
1969227N13325 1969 57 NA NA DEBBIE 1969-08-20 12:00:00 TS 25.1000 -63.3000 105 953 hurdat_atl main 785 782 O_____________ hurdat_atl AL081969 25.1000 -63.3000 HU 105 953 3 10 308
1969227N13325 1969 57 NA NA DEBBIE 1969-08-20 15:00:00 TS 25.4349 -63.7727 main 804 804 P_____________ AL081969 25.4349 -63.7727 HU 102 952 3 11 311
1969227N13325 1969 57 NA NA DEBBIE 1969-08-20 18:00:00 TS 25.8000 -64.2000 100 951 hurdat_atl main 839 839 O_____________ hurdat_atl AL081969 25.8000 -64.2000 HU 100 951 3 11 315
1969227N13325 1969 57 NA NA DEBBIE 1969-08-20 21:00:00 TS 26.1925 -64.6024 main 878 878 P_____________ AL081969 26.1925 -64.6024 HU 100 955 3 10 322
1969227N13325 1969 57 NA NA DEBBIE 1969-08-21 00:00:00 TS 26.6000 -64.9000 100 959 hurdat_atl main 919 919 O_____________ hurdat_atl AL081969 26.6000 -64.9000 HU 100 959 3 9 332
1969227N13325 1969 57 NA NA DEBBIE 1969-08-21 03:00:00 TS 26.9848 -65.0750 main 961 961 P_____________ AL081969 26.9848 -65.0750 HU 97 959 3 8 347
1969227N13325 1969 57 NA NA DEBBIE 1969-08-21 06:00:00 TS 27.4000 -65.1000 95 960 hurdat_atl main 1001 1001 O_____________ hurdat_atl AL081969 27.4000 -65.1000 HU 95 960 2 9 2
1969227N13325 1969 57 NA NA DEBBIE 1969-08-21 09:00:00 TS 27.8848 -65.0248 main 1055 1055 P_____________ AL081969 27.8848 -65.0248 HU 95 959 2 10 15
1969227N13325 1969 57 NA NA DEBBIE 1969-08-21 12:00:00 TS 28.4000 -64.8000 95 959 hurdat_atl main 1114 1114 O_____________ hurdat_atl AL081969 28.4000 -64.8000 HU 95 959 2 11 24
1969227N13325 1969 57 NA NA DEBBIE 1969-08-21 15:00:00 TS 28.9065 -64.5191 main 1177 1177 P_____________ AL081969 28.9065 -64.5191 HU 97 959 3 12 35
1969227N13325 1969 57 NA NA DEBBIE 1969-08-21 18:00:00 TS 29.4000 -64.0000 100 959 hurdat_atl main 1239 1239 O_____________ hurdat_atl AL081969 29.4000 -64.0000 HU 100 959 3 16 54
1969227N13325 1969 57 NA NA DEBBIE 1969-08-21 21:00:00 TS 29.8523 -63.0437 main 1311 1311 P_____________ AL081969 29.8523 -63.0437 HU 100 959 3 19 61
1969227N13325 1969 57 NA NA DEBBIE 1969-08-22 00:00:00 TS 30.3000 -62.1000 100 959 hurdat_atl main 1375 1375 O_____________ hurdat_atl AL081969 30.3000 -62.1000 HU 100 959 3 15 52
1969227N13325 1969 57 NA NA DEBBIE 1969-08-22 03:00:00 TS 30.7682 -61.7097 main 1394 1387 P_____________ AL081969 30.7682 -61.7097 HU 100 960 3 12 31
1969227N13325 1969 57 NA NA DEBBIE 1969-08-22 06:00:00 TS 31.3000 -61.4000 100 hurdat_atl main 1387 1350 I_____________ hurdat_atl AL081969 31.3000 -61.4000 HU 100 961 3 14 35
1969227N13325 1969 57 NA NA DEBBIE 1969-08-22 09:00:00 TS 31.9204 -60.7527 main 1350 1298 P_____________ AL081969 31.9204 -60.7527 HU 100 962 3 18 42
1969227N13325 1969 57 NA NA DEBBIE 1969-08-22 12:00:00 TS 32.6000 -60.0000 100 964 hurdat_atl main 1298 1248 O_____________ hurdat_atl AL081969 32.6000 -60.0000 HU 100 964 3 18 42
1969227N13325 1969 57 NA NA DEBBIE 1969-08-22 15:00:00 TS 33.2921 -59.2991 main 1248 1204 P_____________ AL081969 33.2921 -59.2991 HU 100 964 3 18 40
1969227N13325 1969 57 NA NA DEBBIE 1969-08-22 18:00:00 TS 34.0000 -58.6000 100 hurdat_atl main 1204 1167 I_____________ hurdat_atl AL081969 34.0000 -58.6000 HU 100 964 3 19 41
1969227N13325 1969 57 NA NA DEBBIE 1969-08-22 21:00:00 TS 34.7080 -57.8332 main 1171 1136 P_____________ AL081969 34.7080 -57.8332 HU 100 964 3 18 39
1969227N13325 1969 57 NA NA DEBBIE 1969-08-23 00:00:00 TS 35.4000 -57.2000 100 965 hurdat_atl main 1136 1090 O_____________ hurdat_atl AL081969 35.4000 -57.2000 HU 100 965 3 14 29
1969227N13325 1969 57 NA NA DEBBIE 1969-08-23 03:00:00 TS 35.9656 -56.9800 main 1079 1022 P_____________ AL081969 35.9656 -56.9800 HU 100 3 14 17
1969227N13325 1969 57 NA NA DEBBIE 1969-08-23 06:00:00 TS 36.7000 -56.7000 100 hurdat_atl main 1014 928 O_____________ hurdat_atl AL081969 36.7000 -56.7000 HU 100 3 21 26
1969227N13325 1969 57 NA NA DEBBIE 1969-08-23 09:00:00 TS 37.8693 -55.8374 main 922 840 P_____________ AL081969 37.8693 -55.8374 HU 97 3 29 31
1969227N13325 1969 57 NA NA DEBBIE 1969-08-23 12:00:00 TS 39.2000 -54.8000 95 hurdat_atl main 828 689 O_____________ hurdat_atl AL081969 39.2000 -54.8000 HU 95 2 30 30
1969227N13325 1969 57 NA NA DEBBIE 1969-08-23 15:00:00 TS 40.4452 -53.8818 main 689 566 P_____________ AL081969 40.4452 -53.8818 HU 92 2 27 27
1969227N13325 1969 57 NA NA DEBBIE 1969-08-23 18:00:00 TS 41.6000 -53.2000 90 hurdat_atl main 555 456 O_____________ hurdat_atl AL081969 41.6000 -53.2000 HU 90 2 23 18
1969227N13325 1969 57 NA NA DEBBIE 1969-08-23 21:00:00 TS 42.5789 -52.9324 main 445 356 P_____________ AL081969 42.5789 -52.9324 HU 90 2 19 7
1969227N13325 1969 57 NA NA DEBBIE 1969-08-24 00:00:00 TS 43.5000 -52.9000 90 hurdat_atl main 345 245 O_____________ hurdat_atl AL081969 43.5000 -52.9000 HU 90 2 19 1
1969227N13325 1969 57 NA NA DEBBIE 1969-08-24 03:00:00 TS 44.4548 -52.8833 main 234 136 P_____________ AL081969 44.4548 -52.8833 HU 85 2 20 2
1969227N13325 1969 57 NA NA DEBBIE 1969-08-24 06:00:00 TS 45.5000 -52.8000 80 hurdat_atl main 126 43 O_____________ hurdat_atl AL081969 45.5000 -52.8000 HU 80 1 23 7
1969227N13325 1969 57 NA NA DEBBIE 1969-08-24 09:00:00 TS 46.7121 -52.5032 main 39 25 P_____________ AL081969 46.7121 -52.5032 HU 75 1 26 12
1969227N13325 1969 57 NA NA DEBBIE 1969-08-24 12:00:00 TS 48.0000 -52.0000 70 hurdat_atl main 60 59 O_____________ hurdat_atl AL081969 48.0000 -52.0000 HU 70 1 26 17
1969227N13325 1969 57 NA NA DEBBIE 1969-08-24 15:00:00 TS 49.2487 -51.3716 main 140 140 P_____________ AL081969 49.2487 -51.3716 HU 67 1 27 21
1969227N13325 1969 57 NA NA DEBBIE 1969-08-24 18:00:00 TS 50.5000 -50.5000 65 hurdat_atl main 251 251 O_____________ hurdat_atl AL081969 50.5000 -50.5000 HU 65 1 27 27
1969227N13325 1969 57 NA NA DEBBIE 1969-08-24 21:00:00 TS 51.6706 -49.4504 main 387 387 P_____________ AL081969 51.6706 -49.4504 HU 65 1 29 32
1969227N13325 1969 57 NA NA DEBBIE 1969-08-25 00:00:00 TS 53.0000 -48.0000 65 hurdat_atl main 513 513 O_____________ hurdat_atl AL081969 53.0000 -48.0000 HU 65 1 36 35
1969227N13325 1969 57 NA NA DEBBIE 1969-08-25 03:00:00 TS 54.6077 -45.9696 main 602 402 P_____________ AL081969 54.6077 -45.9696 HU 60 0 43 37
1969227N13325 1969 57 NA NA DEBBIE 1969-08-25 06:00:00 TS 56.5000 -43.5000 55 hurdat_atl main 392 213 O_____________ hurdat_atl AL081969 56.5000 -43.5000 TS 55 0 49 35
1969227N13325 1969 57 NA NA DEBBIE 1969-08-25 09:00:00 TS 58.6456 -40.8036 main 210 194 P_____________ AL081969 58.6456 -40.8036 TS 55 0 53 34
1969227N13325 1969 57 NA NA DEBBIE 1969-08-25 12:00:00 TS 60.9000 -37.8000 55 hurdat_atl main 249 O_____________ hurdat_atl AL081969 60.9000 -37.8000 TS 55 0 54 33

IBTrACS Databaseについて

本データベースは、米国NOAAが公開する1842年以降の世界の熱帯低気圧のベストトラックデータアーカイブInternational Best Track Archive for Climate Stewardship (IBTrACS)を、ウェブで閲覧しやすい形式に変換したものです。

最終更新日:2021-10-27